Aérodrome :
LOGIN :

S'inscrire | Disclaimer

   EN    FR    IT 

 










Légende :    VFR   VFR Marginal   IFR   IFR Intensif   IFR Très Intensif
Visi : 
Plafond : 
>= 8 km
>= 3000ft
5 à 8 km
1000 à 3000 ft
1500m à 5 km
500 à 1000 ft
800 à 1500m
200 à 500 ft
< 800m
< 200 ft
Symboles :   Orages  Brouillard  Fortes neiges  Fortes précipitations  Vent > 20 kt
SIGMETs :   Divers  Orages  Givrage  Turbulence  Onde Orograph.  Cendres Volcan.







- Altitude de l'aérodrome : 1 ft
- Voir les cartes d'approche


EGCK - Caernarfon

DERNIER METAR :
  • 210620Z AUTO VRB02KT 9999 NCD 11/08 Q1020

METARs EXPIRÉS :
  • 210550Z AUTO VRB01KT 9999 NCD 08/07 Q1020
  • 210520Z AUTO 09003KT 9999 NCD 06/05 Q1019
  • 210450Z AUTO 07004KT 9999 NCD 05/04 Q1019
  • 210420Z AUTO 07003KT 9999 NCD 05/04 Q1019
  • 210350Z AUTO 06002KT 9999 NCD 06/05 Q1019

TAF TAF EGCK
Valide du 21 à 06h jusqu'au 21 à 15h UTC


210459Z 2106/2115 VRB03KT 9999 SCT030
TEMPO 2106/2109 BKN014
Pas de NOTAMs connus pour ce terrain.



MET'MAP, la Météo Aéronautique d'un coup d'oeil ! - Copyright ORBIFLY Décembre 2007 - Disclaimer

ORBIFLY MET'MAP TEAM :

Programmation & Développement : Alexandra Zaïnal
Conception & Développement : Baudouin d'Aumeries
Co-Programmation & Développement : Marc-Olivier Méhu
Soutien technique & logistique : Manuel Goepfert

Contact : metmap@orbifly.com




SOURCES & CREDITS :

   NOAA